sensor_id;sensor_type;location;lat;lon;timestamp;P1;durP1;ratioP1;P2;durP2;ratioP2
21305;SDS011;10812;51.838;5.838;2023-03-04T00:00:06;8.67;;;2.23;;
21305;SDS011;10812;51.838;5.838;2023-03-04T00:02:35;9.93;;;1.97;;
21305;SDS011;10812;51.838;5.838;2023-03-04T00:05:03;9.00;;;2.03;;
21305;SDS011;10812;51.838;5.838;2023-03-04T00:07:32;12.03;;;2.20;;
21305;SDS011;10812;51.838;5.838;2023-03-04T00:10:00;8.93;;;2.20;;
21305;SDS011;10812;51.838;5.838;2023-03-04T00:12:30;13.53;;;2.20;;
21305;SDS011;10812;51.838;5.838;2023-03-04T00:14:58;10.47;;;2.53;;
21305;SDS011;10812;51.838;5.838;2023-03-04T00:17:26;5.07;;;1.50;;
21305;SDS011;10812;51.838;5.838;2023-03-04T00:19:55;8.70;;;2.13;;
21305;SDS011;10812;51.838;5.838;2023-03-04T00:22:23;10.77;;;2.00;;
21305;SDS011;10812;51.838;5.838;2023-03-04T00:24:51;14.30;;;2.33;;
21305;SDS011;10812;51.838;5.838;2023-03-04T00:27:19;8.43;;;1.97;;
21305;SDS011;10812;51.838;5.838;2023-03-04T00:29:49;10.13;;;2.03;;
21305;SDS011;10812;51.838;5.838;2023-03-04T00:32:17;11.90;;;2.23;;
21305;SDS011;10812;51.838;5.838;2023-03-04T00:34:45;7.50;;;2.23;;
21305;SDS011;10812;51.838;5.838;2023-03-04T00:37:13;7.57;;;2.10;;
21305;SDS011;10812;51.838;5.838;2023-03-04T00:39:41;9.00;;;1.80;;
21305;SDS011;10812;51.838;5.838;2023-03-04T00:42:09;14.77;;;2.30;;
21305;SDS011;10812;51.838;5.838;2023-03-04T00:44:37;11.17;;;1.80;;
21305;SDS011;10812;51.838;5.838;2023-03-04T00:47:07;8.47;;;2.63;;
21305;SDS011;10812;51.838;5.838;2023-03-04T00:49:35;5.07;;;1.70;;
21305;SDS011;10812;51.838;5.838;2023-03-04T00:52:04;12.00;;;2.20;;
21305;SDS011;10812;51.838;5.838;2023-03-04T00:54:32;14.13;;;2.80;;
21305;SDS011;10812;51.838;5.838;2023-03-04T00:57:00;7.20;;;1.70;;
21305;SDS011;10812;51.838;5.838;2023-03-04T00:59:28;9.07;;;1.80;;
21305;SDS011;10812;51.838;5.838;2023-03-04T01:01:56;11.07;;;2.67;;
21305;SDS011;10812;51.838;5.838;2023-03-04T01:04:25;7.63;;;1.77;;
21305;SDS011;10812;51.838;5.838;2023-03-04T01:06:54;6.73;;;1.63;;
21305;SDS011;10812;51.838;5.838;2023-03-04T01:09:22;8.30;;;1.53;;
21305;SDS011;10812;51.838;5.838;2023-03-04T01:11:52;8.80;;;1.53;;
21305;SDS011;10812;51.838;5.838;2023-03-04T01:14:20;7.10;;;1.70;;
21305;SDS011;10812;51.838;5.838;2023-03-04T01:16:48;7.07;;;1.60;;
21305;SDS011;10812;51.838;5.838;2023-03-04T01:19:17;7.33;;;2.27;;
21305;SDS011;10812;51.838;5.838;2023-03-04T01:21:46;10.07;;;3.13;;
21305;SDS011;10812;51.838;5.838;2023-03-04T01:24:15;9.57;;;1.77;;
21305;SDS011;10812;51.838;5.838;2023-03-04T01:26:43;10.30;;;1.70;;
21305;SDS011;10812;51.838;5.838;2023-03-04T01:29:11;8.60;;;1.43;;
21305;SDS011;10812;51.838;5.838;2023-03-04T01:31:39;9.57;;;2.17;;
21305;SDS011;10812;51.838;5.838;2023-03-04T01:34:07;4.87;;;1.70;;
21305;SDS011;10812;51.838;5.838;2023-03-04T01:36:35;6.23;;;1.70;;
21305;SDS011;10812;51.838;5.838;2023-03-04T01:39:05;8.67;;;1.67;;
21305;SDS011;10812;51.838;5.838;2023-03-04T01:41:33;9.63;;;1.50;;
21305;SDS011;10812;51.838;5.838;2023-03-04T01:44:01;10.70;;;1.90;;
21305;SDS011;10812;51.838;5.838;2023-03-04T01:46:29;10.97;;;2.67;;
21305;SDS011;10812;51.838;5.838;2023-03-04T01:48:58;4.07;;;1.40;;
21305;SDS011;10812;51.838;5.838;2023-03-04T01:51:27;9.97;;;1.73;;
21305;SDS011;10812;51.838;5.838;2023-03-04T01:53:55;6.73;;;2.57;;
21305;SDS011;10812;51.838;5.838;2023-03-04T01:56:25;9.00;;;2.30;;
21305;SDS011;10812;51.838;5.838;2023-03-04T01:59:06;5.43;;;1.37;;
21305;SDS011;10812;51.838;5.838;2023-03-04T02:01:38;9.67;;;1.60;;
21305;SDS011;10812;51.838;5.838;2023-03-04T02:04:08;8.63;;;1.50;;
21305;SDS011;10812;51.838;5.838;2023-03-04T02:06:37;6.43;;;1.70;;
21305;SDS011;10812;51.838;5.838;2023-03-04T02:09:06;10.17;;;1.67;;
21305;SDS011;10812;51.838;5.838;2023-03-04T02:11:36;11.50;;;2.00;;
21305;SDS011;10812;51.838;5.838;2023-03-04T02:14:05;5.50;;;1.40;;
21305;SDS011;10812;51.838;5.838;2023-03-04T02:16:34;5.80;;;1.40;;
21305;SDS011;10812;51.838;5.838;2023-03-04T02:19:03;7.27;;;1.87;;
21305;SDS011;10812;51.838;5.838;2023-03-04T02:21:33;8.07;;;1.57;;
21305;SDS011;10812;51.838;5.838;2023-03-04T02:24:03;10.40;;;2.00;;
21305;SDS011;10812;51.838;5.838;2023-03-04T02:26:41;3.77;;;1.50;;
21305;SDS011;10812;51.838;5.838;2023-03-04T02:29:12;4.40;;;1.27;;
21305;SDS011;10812;51.838;5.838;2023-03-04T02:31:43;4.47;;;1.53;;
21305;SDS011;10812;51.838;5.838;2023-03-04T02:34:13;4.07;;;1.57;;
21305;SDS011;10812;51.838;5.838;2023-03-04T02:36:43;7.33;;;2.33;;
21305;SDS011;10812;51.838;5.838;2023-03-04T02:39:19;10.20;;;1.70;;
21305;SDS011;10812;51.838;5.838;2023-03-04T02:41:52;5.10;;;1.40;;
21305;SDS011;10812;51.838;5.838;2023-03-04T02:44:22;8.20;;;1.70;;
21305;SDS011;10812;51.838;5.838;2023-03-04T02:46:52;6.60;;;2.10;;
21305;SDS011;10812;51.838;5.838;2023-03-04T02:49:21;7.60;;;1.43;;
21305;SDS011;10812;51.838;5.838;2023-03-04T02:51:51;7.13;;;1.70;;
21305;SDS011;10812;51.838;5.838;2023-03-04T02:54:25;5.93;;;1.33;;
21305;SDS011;10812;51.838;5.838;2023-03-04T02:56:55;6.93;;;2.00;;
21305;SDS011;10812;51.838;5.838;2023-03-04T02:59:25;6.90;;;1.60;;
21305;SDS011;10812;51.838;5.838;2023-03-04T03:07:14;7.37;;;1.70;;
21305;SDS011;10812;51.838;5.838;2023-03-04T03:09:42;7.93;;;2.27;;
21305;SDS011;10812;51.838;5.838;2023-03-04T03:12:11;6.67;;;1.67;;
21305;SDS011;10812;51.838;5.838;2023-03-04T03:14:39;9.23;;;1.83;;
21305;SDS011;10812;51.838;5.838;2023-03-04T03:17:07;9.83;;;1.60;;
21305;SDS011;10812;51.838;5.838;2023-03-04T03:19:35;5.93;;;1.60;;
21305;SDS011;10812;51.838;5.838;2023-03-04T03:22:04;10.50;;;2.00;;
21305;SDS011;10812;51.838;5.838;2023-03-04T03:24:32;7.57;;;1.70;;
21305;SDS011;10812;51.838;5.838;2023-03-04T03:27:00;4.57;;;1.30;;
21305;SDS011;10812;51.838;5.838;2023-03-04T03:29:29;3.90;;;1.73;;
21305;SDS011;10812;51.838;5.838;2023-03-04T03:31:57;13.83;;;1.77;;
21305;SDS011;10812;51.838;5.838;2023-03-04T03:34:26;16.67;;;2.30;;
21305;SDS011;10812;51.838;5.838;2023-03-04T03:36:54;10.00;;;1.20;;
21305;SDS011;10812;51.838;5.838;2023-03-04T03:39:22;6.87;;;1.57;;
21305;SDS011;10812;51.838;5.838;2023-03-04T03:41:50;12.73;;;1.60;;
21305;SDS011;10812;51.838;5.838;2023-03-04T03:44:18;8.03;;;1.60;;
21305;SDS011;10812;51.838;5.838;2023-03-04T03:46:48;4.87;;;1.50;;
21305;SDS011;10812;51.838;5.838;2023-03-04T03:49:16;4.63;;;1.23;;
21305;SDS011;10812;51.838;5.838;2023-03-04T03:51:44;7.33;;;2.07;;
21305;SDS011;10812;51.838;5.838;2023-03-04T03:54:12;8.27;;;1.60;;
21305;SDS011;10812;51.838;5.838;2023-03-04T03:56:40;5.83;;;1.30;;
21305;SDS011;10812;51.838;5.838;2023-03-04T03:59:08;4.87;;;1.33;;
21305;SDS011;10812;51.838;5.838;2023-03-04T04:01:36;5.10;;;1.70;;
21305;SDS011;10812;51.838;5.838;2023-03-04T04:04:06;6.90;;;1.40;;
21305;SDS011;10812;51.838;5.838;2023-03-04T04:06:34;6.83;;;1.97;;
21305;SDS011;10812;51.838;5.838;2023-03-04T04:09:02;7.87;;;2.00;;
21305;SDS011;10812;51.838;5.838;2023-03-04T04:11:30;8.87;;;1.30;;
21305;SDS011;10812;51.838;5.838;2023-03-04T04:13:58;5.33;;;1.40;;
21305;SDS011;10812;51.838;5.838;2023-03-04T04:16:26;10.57;;;1.63;;
21305;SDS011;10812;51.838;5.838;2023-03-04T04:18:55;7.50;;;1.77;;
21305;SDS011;10812;51.838;5.838;2023-03-04T04:21:24;3.93;;;1.50;;
21305;SDS011;10812;51.838;5.838;2023-03-04T04:23:52;7.90;;;1.33;;
21305;SDS011;10812;51.838;5.838;2023-03-04T04:26:20;6.20;;;1.23;;
21305;SDS011;10812;51.838;5.838;2023-03-04T04:28:48;6.70;;;1.40;;
21305;SDS011;10812;51.838;5.838;2023-03-04T04:31:16;7.23;;;1.50;;
21305;SDS011;10812;51.838;5.838;2023-03-04T04:33:44;10.67;;;1.57;;
21305;SDS011;10812;51.838;5.838;2023-03-04T04:36:13;8.60;;;1.70;;
21305;SDS011;10812;51.838;5.838;2023-03-04T04:38:43;6.30;;;1.30;;
21305;SDS011;10812;51.838;5.838;2023-03-04T04:41:15;6.47;;;1.40;;
21305;SDS011;10812;51.838;5.838;2023-03-04T04:43:46;5.70;;;1.40;;
21305;SDS011;10812;51.838;5.838;2023-03-04T04:46:14;5.67;;;1.33;;
21305;SDS011;10812;51.838;5.838;2023-03-04T04:48:43;5.00;;;1.00;;
21305;SDS011;10812;51.838;5.838;2023-03-04T04:51:11;3.10;;;1.33;;
21305;SDS011;10812;51.838;5.838;2023-03-04T04:53:40;6.17;;;1.30;;
21305;SDS011;10812;51.838;5.838;2023-03-04T04:56:10;6.83;;;1.83;;
21305;SDS011;10812;51.838;5.838;2023-03-04T04:58:41;7.70;;;1.93;;
21305;SDS011;10812;51.838;5.838;2023-03-04T05:01:09;5.40;;;1.03;;
21305;SDS011;10812;51.838;5.838;2023-03-04T05:03:38;8.77;;;1.43;;
21305;SDS011;10812;51.838;5.838;2023-03-04T05:06:07;9.53;;;1.60;;
21305;SDS011;10812;51.838;5.838;2023-03-04T05:08:36;8.13;;;2.00;;
21305;SDS011;10812;51.838;5.838;2023-03-04T05:11:05;7.83;;;1.40;;
21305;SDS011;10812;51.838;5.838;2023-03-04T05:13:35;5.67;;;1.33;;
21305;SDS011;10812;51.838;5.838;2023-03-04T05:16:04;6.73;;;1.20;;
21305;SDS011;10812;51.838;5.838;2023-03-04T05:18:32;9.47;;;2.10;;
21305;SDS011;10812;51.838;5.838;2023-03-04T05:21:01;2.63;;;1.10;;
21305;SDS011;10812;51.838;5.838;2023-03-04T05:23:31;3.50;;;0.97;;
21305;SDS011;10812;51.838;5.838;2023-03-04T05:26:01;7.13;;;1.33;;
21305;SDS011;10812;51.838;5.838;2023-03-04T05:28:29;3.20;;;0.90;;
21305;SDS011;10812;51.838;5.838;2023-03-04T05:30:59;6.97;;;1.20;;
21305;SDS011;10812;51.838;5.838;2023-03-04T05:33:27;6.07;;;1.43;;
21305;SDS011;10812;51.838;5.838;2023-03-04T05:35:56;9.03;;;1.40;;
21305;SDS011;10812;51.838;5.838;2023-03-04T05:38:24;9.33;;;1.53;;
21305;SDS011;10812;51.838;5.838;2023-03-04T05:40:55;7.17;;;2.00;;
21305;SDS011;10812;51.838;5.838;2023-03-04T05:43:25;5.00;;;1.00;;
21305;SDS011;10812;51.838;5.838;2023-03-04T05:45:54;6.83;;;1.53;;
21305;SDS011;10812;51.838;5.838;2023-03-04T05:48:24;5.00;;;1.10;;
21305;SDS011;10812;51.838;5.838;2023-03-04T05:50:53;5.20;;;1.30;;
21305;SDS011;10812;51.838;5.838;2023-03-04T05:53:22;7.03;;;1.07;;
21305;SDS011;10812;51.838;5.838;2023-03-04T05:55:50;5.23;;;1.23;;
21305;SDS011;10812;51.838;5.838;2023-03-04T05:58:19;6.33;;;1.30;;
21305;SDS011;10812;51.838;5.838;2023-03-04T06:00:48;6.30;;;1.60;;
21305;SDS011;10812;51.838;5.838;2023-03-04T06:03:16;3.53;;;1.10;;
21305;SDS011;10812;51.838;5.838;2023-03-04T06:05:48;6.70;;;1.03;;
21305;SDS011;10812;51.838;5.838;2023-03-04T06:08:16;2.37;;;0.83;;
21305;SDS011;10812;51.838;5.838;2023-03-04T06:10:44;7.13;;;1.53;;
21305;SDS011;10812;51.838;5.838;2023-03-04T06:13:12;3.23;;;1.20;;
21305;SDS011;10812;51.838;5.838;2023-03-04T06:15:40;8.17;;;1.47;;
21305;SDS011;10812;51.838;5.838;2023-03-04T06:18:08;5.40;;;1.07;;
21305;SDS011;10812;51.838;5.838;2023-03-04T06:20:36;5.57;;;1.10;;
21305;SDS011;10812;51.838;5.838;2023-03-04T06:23:06;5.67;;;1.63;;
21305;SDS011;10812;51.838;5.838;2023-03-04T06:25:34;4.07;;;1.20;;
21305;SDS011;10812;51.838;5.838;2023-03-04T06:28:02;5.90;;;1.33;;
21305;SDS011;10812;51.838;5.838;2023-03-04T06:30:30;4.37;;;0.93;;
21305;SDS011;10812;51.838;5.838;2023-03-04T06:32:59;9.33;;;1.63;;
21305;SDS011;10812;51.838;5.838;2023-03-04T06:35:27;6.27;;;1.00;;
21305;SDS011;10812;51.838;5.838;2023-03-04T06:37:55;9.23;;;1.40;;
21305;SDS011;10812;51.838;5.838;2023-03-04T06:40:24;3.97;;;1.30;;
21305;SDS011;10812;51.838;5.838;2023-03-04T06:42:52;4.53;;;1.17;;
21305;SDS011;10812;51.838;5.838;2023-03-04T06:45:20;5.40;;;1.10;;
21305;SDS011;10812;51.838;5.838;2023-03-04T06:47:49;2.73;;;1.20;;
21305;SDS011;10812;51.838;5.838;2023-03-04T06:50:17;9.10;;;1.50;;
21305;SDS011;10812;51.838;5.838;2023-03-04T06:52:45;6.57;;;1.33;;
21305;SDS011;10812;51.838;5.838;2023-03-04T06:55:14;10.80;;;1.90;;
21305;SDS011;10812;51.838;5.838;2023-03-04T06:57:44;6.77;;;1.30;;
21305;SDS011;10812;51.838;5.838;2023-03-04T07:00:14;5.87;;;1.30;;
21305;SDS011;10812;51.838;5.838;2023-03-04T07:02:43;5.53;;;1.47;;
21305;SDS011;10812;51.838;5.838;2023-03-04T07:05:11;3.87;;;1.00;;
21305;SDS011;10812;51.838;5.838;2023-03-04T07:07:39;4.20;;;1.10;;
21305;SDS011;10812;51.838;5.838;2023-03-04T07:10:08;5.77;;;1.37;;
21305;SDS011;10812;51.838;5.838;2023-03-04T07:12:37;7.53;;;1.20;;
21305;SDS011;10812;51.838;5.838;2023-03-04T07:15:07;5.07;;;1.10;;
21305;SDS011;10812;51.838;5.838;2023-03-04T07:17:36;5.87;;;1.47;;
21305;SDS011;10812;51.838;5.838;2023-03-04T07:20:04;7.83;;;1.33;;
21305;SDS011;10812;51.838;5.838;2023-03-04T07:22:33;5.97;;;1.33;;
21305;SDS011;10812;51.838;5.838;2023-03-04T07:25:01;4.73;;;1.30;;
21305;SDS011;10812;51.838;5.838;2023-03-04T07:27:29;6.67;;;1.37;;
21305;SDS011;10812;51.838;5.838;2023-03-04T07:29:58;7.20;;;1.57;;
21305;SDS011;10812;51.838;5.838;2023-03-04T07:32:27;4.67;;;1.50;;
21305;SDS011;10812;51.838;5.838;2023-03-04T07:34:55;13.93;;;2.73;;
21305;SDS011;10812;51.838;5.838;2023-03-04T07:37:23;8.33;;;1.53;;
21305;SDS011;10812;51.838;5.838;2023-03-04T07:39:52;5.43;;;1.20;;
21305;SDS011;10812;51.838;5.838;2023-03-04T07:42:20;6.27;;;1.97;;
21305;SDS011;10812;51.838;5.838;2023-03-04T07:44:48;2.97;;;1.23;;
21305;SDS011;10812;51.838;5.838;2023-03-04T07:47:16;8.10;;;1.20;;
21305;SDS011;10812;51.838;5.838;2023-03-04T07:49:46;8.73;;;1.30;;
21305;SDS011;10812;51.838;5.838;2023-03-04T07:52:14;6.90;;;1.53;;
21305;SDS011;10812;51.838;5.838;2023-03-04T07:54:42;4.17;;;1.27;;
21305;SDS011;10812;51.838;5.838;2023-03-04T07:57:10;5.73;;;1.33;;
21305;SDS011;10812;51.838;5.838;2023-03-04T07:59:38;3.93;;;1.40;;
21305;SDS011;10812;51.838;5.838;2023-03-04T08:02:06;4.10;;;1.20;;
21305;SDS011;10812;51.838;5.838;2023-03-04T08:04:36;4.97;;;1.63;;
21305;SDS011;10812;51.838;5.838;2023-03-04T08:07:05;4.57;;;1.20;;
21305;SDS011;10812;51.838;5.838;2023-03-04T08:09:36;8.67;;;1.33;;
21305;SDS011;10812;51.838;5.838;2023-03-04T08:12:04;5.67;;;1.23;;
21305;SDS011;10812;51.838;5.838;2023-03-04T08:14:32;10.53;;;2.00;;
21305;SDS011;10812;51.838;5.838;2023-03-04T08:17:00;2.83;;;1.53;;
21305;SDS011;10812;51.838;5.838;2023-03-04T08:19:28;6.40;;;1.93;;
21305;SDS011;10812;51.838;5.838;2023-03-04T08:21:57;5.13;;;1.70;;
21305;SDS011;10812;51.838;5.838;2023-03-04T08:24:26;3.97;;;1.30;;
21305;SDS011;10812;51.838;5.838;2023-03-04T08:26:54;5.00;;;1.70;;
21305;SDS011;10812;51.838;5.838;2023-03-04T08:29:23;3.87;;;1.57;;
21305;SDS011;10812;51.838;5.838;2023-03-04T08:31:52;5.40;;;1.40;;
21305;SDS011;10812;51.838;5.838;2023-03-04T08:34:22;7.57;;;2.40;;
21305;SDS011;10812;51.838;5.838;2023-03-04T08:36:52;6.00;;;1.40;;
21305;SDS011;10812;51.838;5.838;2023-03-04T08:39:20;7.53;;;1.47;;
21305;SDS011;10812;51.838;5.838;2023-03-04T08:41:50;9.53;;;1.70;;
21305;SDS011;10812;51.838;5.838;2023-03-04T08:44:18;5.53;;;1.70;;
21305;SDS011;10812;51.838;5.838;2023-03-04T08:46:46;6.03;;;1.17;;
21305;SDS011;10812;51.838;5.838;2023-03-04T08:49:14;3.87;;;1.27;;
21305;SDS011;10812;51.838;5.838;2023-03-04T08:51:43;4.80;;;1.20;;
21305;SDS011;10812;51.838;5.838;2023-03-04T08:54:11;9.93;;;1.87;;
21305;SDS011;10812;51.838;5.838;2023-03-04T08:56:39;10.23;;;1.60;;
21305;SDS011;10812;51.838;5.838;2023-03-04T08:59:09;5.20;;;1.40;;
21305;SDS011;10812;51.838;5.838;2023-03-04T09:01:37;8.63;;;1.30;;
21305;SDS011;10812;51.838;5.838;2023-03-04T09:04:05;10.60;;;1.47;;
21305;SDS011;10812;51.838;5.838;2023-03-04T09:06:33;3.60;;;1.00;;
21305;SDS011;10812;51.838;5.838;2023-03-04T09:09:01;7.17;;;1.00;;
21305;SDS011;10812;51.838;5.838;2023-03-04T09:11:30;8.77;;;1.70;;
21305;SDS011;10812;51.838;5.838;2023-03-04T09:13:58;4.17;;;1.17;;
21305;SDS011;10812;51.838;5.838;2023-03-04T09:16:27;6.70;;;1.27;;
21305;SDS011;10812;51.838;5.838;2023-03-04T09:18:56;4.53;;;1.00;;
21305;SDS011;10812;51.838;5.838;2023-03-04T09:21:24;5.33;;;1.10;;
21305;SDS011;10812;51.838;5.838;2023-03-04T09:23:52;3.43;;;0.90;;
21305;SDS011;10812;51.838;5.838;2023-03-04T09:26:20;3.90;;;0.90;;
21305;SDS011;10812;51.838;5.838;2023-03-04T09:28:50;3.50;;;1.20;;
21305;SDS011;10812;51.838;5.838;2023-03-04T09:31:19;1.17;;;0.70;;
21305;SDS011;10812;51.838;5.838;2023-03-04T09:33:50;2.10;;;1.07;;
21305;SDS011;10812;51.838;5.838;2023-03-04T09:36:19;6.00;;;1.27;;
21305;SDS011;10812;51.838;5.838;2023-03-04T09:38:48;4.43;;;1.63;;
21305;SDS011;10812;51.838;5.838;2023-03-04T09:41:17;3.30;;;1.60;;
21305;SDS011;10812;51.838;5.838;2023-03-04T09:43:48;3.27;;;1.50;;
21305;SDS011;10812;51.838;5.838;2023-03-04T09:46:21;2.27;;;1.20;;
21305;SDS011;10812;51.838;5.838;2023-03-04T09:48:57;5.53;;;1.13;;
21305;SDS011;10812;51.838;5.838;2023-03-04T09:51:30;3.27;;;1.20;;
21305;SDS011;10812;51.838;5.838;2023-03-04T09:54:08;4.17;;;1.43;;
21305;SDS011;10812;51.838;5.838;2023-03-04T09:56:41;3.17;;;1.10;;
21305;SDS011;10812;51.838;5.838;2023-03-04T09:59:13;3.80;;;1.10;;
21305;SDS011;10812;51.838;5.838;2023-03-04T10:01:47;3.90;;;1.10;;
21305;SDS011;10812;51.838;5.838;2023-03-04T10:04:21;1.50;;;0.93;;
21305;SDS011;10812;51.838;5.838;2023-03-04T10:06:56;2.27;;;1.33;;
21305;SDS011;10812;51.838;5.838;2023-03-04T10:09:26;4.60;;;1.30;;
21305;SDS011;10812;51.838;5.838;2023-03-04T10:11:59;4.17;;;1.80;;
21305;SDS011;10812;51.838;5.838;2023-03-04T10:14:34;5.97;;;1.33;;
21305;SDS011;10812;51.838;5.838;2023-03-04T10:17:08;4.60;;;1.30;;
21305;SDS011;10812;51.838;5.838;2023-03-04T10:19:45;4.10;;;1.73;;
21305;SDS011;10812;51.838;5.838;2023-03-04T10:22:20;5.87;;;1.50;;
21305;SDS011;10812;51.838;5.838;2023-03-04T10:24:54;3.77;;;1.43;;
21305;SDS011;10812;51.838;5.838;2023-03-04T10:27:24;5.83;;;1.33;;
21305;SDS011;10812;51.838;5.838;2023-03-04T10:29:55;4.10;;;1.47;;
21305;SDS011;10812;51.838;5.838;2023-03-04T10:32:26;4.47;;;1.50;;
21305;SDS011;10812;51.838;5.838;2023-03-04T10:34:56;1.73;;;1.20;;
21305;SDS011;10812;51.838;5.838;2023-03-04T10:37:24;4.60;;;1.30;;
21305;SDS011;10812;51.838;5.838;2023-03-04T10:40:16;5.47;;;0.97;;
21305;SDS011;10812;51.838;5.838;2023-03-04T10:42:47;2.43;;;0.87;;
21305;SDS011;10812;51.838;5.838;2023-03-04T10:45:19;2.37;;;0.90;;
21305;SDS011;10812;51.838;5.838;2023-03-04T10:47:52;1.57;;;0.80;;
21305;SDS011;10812;51.838;5.838;2023-03-04T10:50:23;1.57;;;0.80;;
21305;SDS011;10812;51.838;5.838;2023-03-04T10:52:53;2.17;;;0.60;;
21305;SDS011;10812;51.838;5.838;2023-03-04T10:55:23;3.87;;;0.90;;
21305;SDS011;10812;51.838;5.838;2023-03-04T10:57:54;1.03;;;0.80;;
21305;SDS011;10812;51.838;5.838;2023-03-04T11:00:28;3.07;;;0.90;;
21305;SDS011;10812;51.838;5.838;2023-03-04T11:06:09;1.13;;;0.70;;
21305;SDS011;10812;51.838;5.838;2023-03-04T11:08:42;1.80;;;0.70;;
21305;SDS011;10812;51.838;5.838;2023-03-04T11:11:20;1.37;;;0.73;;
21305;SDS011;10812;51.838;5.838;2023-03-04T11:13:55;1.90;;;0.87;;
21305;SDS011;10812;51.838;5.838;2023-03-04T11:16:26;1.00;;;0.80;;
21305;SDS011;10812;51.838;5.838;2023-03-04T11:18:57;2.40;;;1.00;;
21305;SDS011;10812;51.838;5.838;2023-03-04T11:21:33;1.07;;;0.73;;
21305;SDS011;10812;51.838;5.838;2023-03-04T11:24:08;2.47;;;0.83;;
21305;SDS011;10812;51.838;5.838;2023-03-04T11:26:55;1.40;;;0.77;;
21305;SDS011;10812;51.838;5.838;2023-03-04T11:29:28;2.27;;;1.00;;
21305;SDS011;10812;51.838;5.838;2023-03-04T11:32:00;0.90;;;0.60;;
21305;SDS011;10812;51.838;5.838;2023-03-04T11:34:36;1.23;;;0.63;;
21305;SDS011;10812;51.838;5.838;2023-03-04T11:37:11;0.87;;;0.47;;
21305;SDS011;10812;51.838;5.838;2023-03-04T11:39:46;2.03;;;0.60;;
21305;SDS011;10812;51.838;5.838;2023-03-04T11:42:21;3.13;;;0.60;;
21305;SDS011;10812;51.838;5.838;2023-03-04T11:44:55;1.37;;;0.70;;
21305;SDS011;10812;51.838;5.838;2023-03-04T11:47:30;1.00;;;0.60;;
21305;SDS011;10812;51.838;5.838;2023-03-04T11:50:11;1.50;;;0.77;;
21305;SDS011;10812;51.838;5.838;2023-03-04T11:56:07;0.90;;;0.60;;
21305;SDS011;10812;51.838;5.838;2023-03-04T11:58:49;2.70;;;0.80;;
21305;SDS011;10812;51.838;5.838;2023-03-04T12:01:36;1.17;;;0.60;;
21305;SDS011;10812;51.838;5.838;2023-03-04T12:07:12;1.97;;;0.70;;
21305;SDS011;10812;51.838;5.838;2023-03-04T12:09:56;1.03;;;0.70;;
21305;SDS011;10812;51.838;5.838;2023-03-04T12:12:38;1.00;;;0.60;;
21305;SDS011;10812;51.838;5.838;2023-03-04T12:15:19;2.03;;;0.90;;
21305;SDS011;10812;51.838;5.838;2023-03-04T12:20:52;1.00;;;0.80;;
21305;SDS011;10812;51.838;5.838;2023-03-04T12:23:32;2.00;;;0.60;;
21305;SDS011;10812;51.838;5.838;2023-03-04T12:26:15;0.60;;;0.50;;
21305;SDS011;10812;51.838;5.838;2023-03-04T12:28:54;1.40;;;0.77;;
21305;SDS011;10812;51.838;5.838;2023-03-04T12:31:32;2.03;;;0.73;;
21305;SDS011;10812;51.838;5.838;2023-03-04T12:34:13;1.40;;;0.80;;
21305;SDS011;10812;51.838;5.838;2023-03-04T12:37:03;2.00;;;1.20;;
21305;SDS011;10812;51.838;5.838;2023-03-04T12:39:38;2.50;;;1.03;;
21305;SDS011;10812;51.838;5.838;2023-03-04T12:42:12;2.70;;;1.17;;
21305;SDS011;10812;51.838;5.838;2023-03-04T12:44:53;2.30;;;1.03;;
21305;SDS011;10812;51.838;5.838;2023-03-04T12:47:30;4.57;;;1.20;;
21305;SDS011;10812;51.838;5.838;2023-03-04T12:50:17;2.50;;;1.20;;
21305;SDS011;10812;51.838;5.838;2023-03-04T12:53:00;2.23;;;1.20;;
21305;SDS011;10812;51.838;5.838;2023-03-04T12:55:37;1.20;;;1.10;;
21305;SDS011;10812;51.838;5.838;2023-03-04T12:58:10;1.80;;;0.60;;
21305;SDS011;10812;51.838;5.838;2023-03-04T13:00:45;1.10;;;0.80;;
21305;SDS011;10812;51.838;5.838;2023-03-04T13:03:20;1.93;;;0.73;;
21305;SDS011;10812;51.838;5.838;2023-03-04T13:05:55;0.77;;;0.50;;
21305;SDS011;10812;51.838;5.838;2023-03-04T13:08:36;2.47;;;1.03;;
21305;SDS011;10812;51.838;5.838;2023-03-04T13:14:21;2.23;;;0.83;;
21305;SDS011;10812;51.838;5.838;2023-03-04T13:16:55;1.43;;;0.60;;
21305;SDS011;10812;51.838;5.838;2023-03-04T13:22:29;5.63;;;0.97;;
21305;SDS011;10812;51.838;5.838;2023-03-04T13:33:49;3.97;;;0.93;;
21305;SDS011;10812;51.838;5.838;2023-03-04T13:39:30;3.43;;;1.00;;
21305;SDS011;10812;51.838;5.838;2023-03-04T13:42:00;3.60;;;0.97;;
21305;SDS011;10812;51.838;5.838;2023-03-04T13:44:30;1.23;;;0.70;;
21305;SDS011;10812;51.838;5.838;2023-03-04T13:50:26;6.60;;;0.77;;
21305;SDS011;10812;51.838;5.838;2023-03-04T13:56:19;3.33;;;0.80;;
21305;SDS011;10812;51.838;5.838;2023-03-04T13:59:01;6.50;;;1.00;;
21305;SDS011;10812;51.838;5.838;2023-03-04T14:01:53;4.57;;;1.33;;
21305;SDS011;10812;51.838;5.838;2023-03-04T14:04:29;4.40;;;1.10;;
21305;SDS011;10812;51.838;5.838;2023-03-04T14:07:01;5.30;;;1.10;;
21305;SDS011;10812;51.838;5.838;2023-03-04T14:09:31;3.50;;;0.80;;
21305;SDS011;10812;51.838;5.838;2023-03-04T14:12:01;3.97;;;1.03;;
21305;SDS011;10812;51.838;5.838;2023-03-04T14:14:34;4.73;;;1.10;;
21305;SDS011;10812;51.838;5.838;2023-03-04T14:17:12;2.27;;;0.93;;
21305;SDS011;10812;51.838;5.838;2023-03-04T14:19:45;2.80;;;0.87;;
21305;SDS011;10812;51.838;5.838;2023-03-04T14:22:21;1.63;;;0.70;;
21305;SDS011;10812;51.838;5.838;2023-03-04T14:24:55;3.50;;;0.80;;
21305;SDS011;10812;51.838;5.838;2023-03-04T14:27:25;3.87;;;0.73;;
21305;SDS011;10812;51.838;5.838;2023-03-04T14:29:53;3.77;;;0.77;;
21305;SDS011;10812;51.838;5.838;2023-03-04T14:32:23;6.67;;;1.07;;
21305;SDS011;10812;51.838;5.838;2023-03-04T14:34:53;1.93;;;0.73;;
21305;SDS011;10812;51.838;5.838;2023-03-04T14:37:26;1.07;;;0.60;;
21305;SDS011;10812;51.838;5.838;2023-03-04T14:40:01;2.83;;;1.70;;
21305;SDS011;10812;51.838;5.838;2023-03-04T14:42:33;2.90;;;1.00;;
21305;SDS011;10812;51.838;5.838;2023-03-04T14:45:05;5.57;;;1.10;;
21305;SDS011;10812;51.838;5.838;2023-03-04T14:47:37;2.90;;;0.90;;
21305;SDS011;10812;51.838;5.838;2023-03-04T14:50:10;4.67;;;1.47;;
21305;SDS011;10812;51.838;5.838;2023-03-04T14:52:43;3.83;;;0.70;;
21305;SDS011;10812;51.838;5.838;2023-03-04T14:55:20;4.70;;;1.33;;
21305;SDS011;10812;51.838;5.838;2023-03-04T14:57:50;4.03;;;1.00;;
21305;SDS011;10812;51.838;5.838;2023-03-04T15:00:25;7.40;;;2.30;;
21305;SDS011;10812;51.838;5.838;2023-03-04T15:02:57;5.63;;;1.33;;
21305;SDS011;10812;51.838;5.838;2023-03-04T15:05:26;5.63;;;1.30;;
21305;SDS011;10812;51.838;5.838;2023-03-04T15:07:57;5.03;;;1.13;;
21305;SDS011;10812;51.838;5.838;2023-03-04T15:10:28;4.10;;;0.90;;
21305;SDS011;10812;51.838;5.838;2023-03-04T15:12:58;4.50;;;1.03;;
21305;SDS011;10812;51.838;5.838;2023-03-04T15:15:30;7.33;;;1.10;;
21305;SDS011;10812;51.838;5.838;2023-03-04T15:18:02;3.30;;;0.80;;
21305;SDS011;10812;51.838;5.838;2023-03-04T15:20:40;4.67;;;1.20;;
21305;SDS011;10812;51.838;5.838;2023-03-04T15:23:10;1.97;;;0.87;;
21305;SDS011;10812;51.838;5.838;2023-03-04T15:25:40;5.00;;;1.47;;
21305;SDS011;10812;51.838;5.838;2023-03-04T15:28:11;1.57;;;0.77;;
21305;SDS011;10812;51.838;5.838;2023-03-04T15:30:43;2.30;;;0.80;;
21305;SDS011;10812;51.838;5.838;2023-03-04T15:33:11;1.77;;;0.50;;
21305;SDS011;10812;51.838;5.838;2023-03-04T15:35:40;1.57;;;0.60;;
21305;SDS011;10812;51.838;5.838;2023-03-04T15:38:16;3.17;;;0.70;;
21305;SDS011;10812;51.838;5.838;2023-03-04T15:40:45;1.53;;;0.60;;
21305;SDS011;10812;51.838;5.838;2023-03-04T15:43:14;3.60;;;0.50;;
21305;SDS011;10812;51.838;5.838;2023-03-04T15:45:43;1.57;;;0.70;;
21305;SDS011;10812;51.838;5.838;2023-03-04T15:48:12;1.57;;;0.53;;